createdAt,value
2018-07-31T00:00:28.084Z,24.95
2018-07-31T00:02:55.761Z,24.83
2018-07-31T00:05:23.385Z,24.87
2018-07-31T00:07:52.109Z,24.88
2018-07-31T00:10:35.541Z,24.74
2018-07-31T00:13:03.154Z,24.63
2018-07-31T00:15:30.819Z,24.60
2018-07-31T00:17:58.520Z,24.64
2018-07-31T00:20:26.141Z,24.64
2018-07-31T00:22:53.792Z,24.51
2018-07-31T00:25:21.517Z,24.51
2018-07-31T00:27:49.197Z,24.46
2018-07-31T00:30:16.919Z,24.57
2018-07-31T00:32:44.549Z,24.36
2018-07-31T00:35:12.240Z,24.44
2018-07-31T00:37:39.987Z,24.59
2018-07-31T00:40:07.708Z,24.51
2018-07-31T00:42:35.362Z,24.50
2018-07-31T00:45:03.049Z,24.43
2018-07-31T00:47:30.749Z,24.34
2018-07-31T00:49:58.460Z,24.37
2018-07-31T00:52:26.096Z,24.33
2018-07-31T00:54:53.869Z,24.29
2018-07-31T00:57:21.798Z,24.25
2018-07-31T00:59:50.085Z,24.28
2018-07-31T01:02:17.776Z,24.22
2018-07-31T01:04:45.473Z,24.05
2018-07-31T01:07:13.162Z,23.86
2018-07-31T01:09:41.001Z,23.80
2018-07-31T01:12:08.666Z,23.88
2018-07-31T01:14:37.348Z,23.89
2018-07-31T01:17:05.083Z,23.89
2018-07-31T01:19:32.754Z,23.92
2018-07-31T01:22:00.437Z,23.98
2018-07-31T01:24:28.069Z,24.14
2018-07-31T01:26:55.738Z,24.20
2018-07-31T01:29:23.412Z,24.06
2018-07-31T01:31:51.152Z,24.11
2018-07-31T01:34:18.924Z,23.89
2018-07-31T01:36:46.741Z,23.84
2018-07-31T01:39:14.746Z,23.76
2018-07-31T01:41:42.476Z,23.74
2018-07-31T01:44:10.357Z,23.67
2018-07-31T01:46:38.061Z,23.60
2018-07-31T01:49:05.747Z,23.46
2018-07-31T01:51:33.477Z,23.42
2018-07-31T01:54:01.085Z,23.36
2018-07-31T01:56:28.717Z,23.25
2018-07-31T01:58:56.357Z,23.25
2018-07-31T02:01:24.029Z,23.24
2018-07-31T02:03:51.976Z,23.28
2018-07-31T02:06:24.543Z,23.35
2018-07-31T02:08:52.306Z,23.29
2018-07-31T02:11:20.013Z,23.14
2018-07-31T02:14:18.924Z,23.21
2018-07-31T02:16:46.725Z,23.20
2018-07-31T02:19:14.411Z,23.13
2018-07-31T02:21:42.093Z,23.12
2018-07-31T02:24:09.967Z,23.12
2018-07-31T02:26:37.602Z,23.28
2018-07-31T02:29:05.205Z,23.18
2018-07-31T02:31:32.966Z,23.24
2018-07-31T02:34:00.689Z,23.09
2018-07-31T02:36:28.317Z,23.11
2018-07-31T02:38:56.105Z,23.06
2018-07-31T02:41:24.773Z,23.14
2018-07-31T02:43:52.602Z,23.20
2018-07-31T02:46:20.297Z,23.13
2018-07-31T02:48:48.097Z,23.28
2018-07-31T02:51:15.883Z,23.21
2018-07-31T02:53:43.541Z,23.08
2018-07-31T02:56:11.275Z,22.95
2018-07-31T02:58:39.030Z,22.99
2018-07-31T03:01:06.969Z,22.93
2018-07-31T03:03:34.693Z,22.83
2018-07-31T03:06:02.436Z,22.71
2018-07-31T03:08:30.064Z,22.75
2018-07-31T03:10:57.881Z,22.79
2018-07-31T03:13:25.544Z,22.78
2018-07-31T03:15:53.213Z,22.76
2018-07-31T03:18:20.851Z,22.79
2018-07-31T03:20:48.475Z,22.73
2018-07-31T03:23:16.277Z,22.63
2018-07-31T03:25:44.125Z,22.71
2018-07-31T03:28:11.831Z,22.77
2018-07-31T03:30:39.548Z,22.57
2018-07-31T03:33:07.312Z,22.66
2018-07-31T03:35:35.098Z,22.68
2018-07-31T03:38:02.989Z,22.63
2018-07-31T03:40:30.593Z,22.56
2018-07-31T03:42:58.207Z,22.67
2018-07-31T03:45:25.894Z,22.77
2018-07-31T03:47:53.497Z,22.87
2018-07-31T03:50:21.221Z,22.90
2018-07-31T03:52:48.842Z,22.70
2018-07-31T03:55:16.516Z,22.52
2018-07-31T03:57:44.208Z,22.66
2018-07-31T04:00:11.853Z,22.77
2018-07-31T04:02:39.534Z,22.75
2018-07-31T04:05:07.189Z,22.73
2018-07-31T04:07:34.853Z,22.61
2018-07-31T04:10:02.644Z,22.71
2018-07-31T04:12:30.262Z,22.78
2018-07-31T04:14:57.912Z,22.76
2018-07-31T04:17:25.597Z,22.68
2018-07-31T04:19:53.253Z,22.73
2018-07-31T04:22:20.914Z,22.79
2018-07-31T04:24:48.524Z,22.55
2018-07-31T04:27:16.267Z,22.34
2018-07-31T04:29:43.856Z,22.53
2018-07-31T04:32:11.454Z,22.49
2018-07-31T04:34:39.036Z,22.60
2018-07-31T04:37:06.773Z,22.68
2018-07-31T04:39:34.401Z,22.81
2018-07-31T04:42:02.107Z,22.61
2018-07-31T04:44:29.744Z,22.79
2018-07-31T04:46:57.412Z,23.00
2018-07-31T04:49:25.152Z,23.01
2018-07-31T04:51:52.883Z,22.77
2018-07-31T04:54:20.533Z,22.59
2018-07-31T04:56:48.204Z,22.49
2018-07-31T04:59:15.852Z,22.60
2018-07-31T05:01:43.577Z,22.77
2018-07-31T05:04:11.214Z,22.79
2018-07-31T05:06:38.949Z,23.02
2018-07-31T05:09:09.028Z,22.85
2018-07-31T05:11:36.757Z,23.09
2018-07-31T05:14:05.101Z,23.04
2018-07-31T05:16:32.708Z,23.12
2018-07-31T05:19:00.457Z,23.16
2018-07-31T05:21:28.209Z,23.34
2018-07-31T05:23:55.851Z,23.50
2018-07-31T05:26:23.465Z,23.53
2018-07-31T05:28:51.340Z,23.76
2018-07-31T05:31:18.986Z,24.05
2018-07-31T05:33:46.752Z,23.80
2018-07-31T05:36:14.402Z,23.55
2018-07-31T05:38:42.025Z,23.72
2018-07-31T05:41:09.658Z,23.78
2018-07-31T05:43:37.465Z,23.84
2018-07-31T05:46:05.335Z,23.98
2018-07-31T05:48:32.953Z,24.34
2018-07-31T05:51:00.662Z,24.30
2018-07-31T05:53:28.321Z,24.26
2018-07-31T05:55:56.001Z,24.38
2018-07-31T05:58:23.639Z,24.29
2018-07-31T06:00:51.254Z,24.19
2018-07-31T06:03:19.008Z,24.67
2018-07-31T06:05:46.740Z,25.07
2018-07-31T06:08:14.453Z,25.13
2018-07-31T06:10:42.177Z,25.55
2018-07-31T06:13:09.830Z,25.32
2018-07-31T06:15:37.526Z,25.45
2018-07-31T06:18:05.183Z,26.17
2018-07-31T06:20:32.810Z,26.44
2018-07-31T06:23:00.462Z,26.90
2018-07-31T06:25:28.184Z,26.54
2018-07-31T06:27:55.821Z,27.33
2018-07-31T06:30:23.488Z,27.58
2018-07-31T06:32:51.192Z,28.09
2018-07-31T06:35:18.793Z,28.22
2018-07-31T06:37:46.461Z,28.96
2018-07-31T06:40:14.085Z,29.15
2018-07-31T06:42:41.789Z,28.84
2018-07-31T06:45:09.473Z,29.40
2018-07-31T06:47:37.109Z,29.70
2018-07-31T06:52:33.630Z,29.91
2018-07-31T06:55:01.319Z,28.99
2018-07-31T06:57:29.015Z,29.63
2018-07-31T06:59:56.965Z,29.18
2018-07-31T07:02:24.707Z,30.01
2018-07-31T07:04:52.733Z,29.74
2018-07-31T07:07:20.433Z,29.59
2018-07-31T07:09:48.179Z,29.56
2018-07-31T07:12:15.917Z,30.11
2018-07-31T07:14:43.638Z,29.84
2018-07-31T07:17:11.326Z,30.23
2018-07-31T07:19:39.036Z,30.84
2018-07-31T07:22:06.868Z,30.55
2018-07-31T07:24:34.544Z,31.27
2018-07-31T07:27:02.323Z,31.51
2018-07-31T07:29:30.039Z,31.92
2018-07-31T07:31:57.754Z,31.86
2018-07-31T07:34:25.847Z,31.49
2018-07-31T07:36:53.560Z,31.95
2018-07-31T07:39:21.271Z,32.39
2018-07-31T07:41:49.005Z,32.35
2018-07-31T07:44:16.702Z,32.00
2018-07-31T07:46:44.418Z,32.14
2018-07-31T07:49:12.104Z,32.06
2018-07-31T07:51:39.800Z,32.22
2018-07-31T07:54:07.655Z,32.52
2018-07-31T07:56:35.306Z,32.70
2018-07-31T07:59:03.109Z,32.98
2018-07-31T08:01:30.826Z,33.23
2018-07-31T08:03:58.539Z,33.23
2018-07-31T08:06:26.218Z,32.73
2018-07-31T08:08:53.928Z,33.26
2018-07-31T08:11:21.635Z,33.61
2018-07-31T08:13:49.382Z,33.54
2018-07-31T08:16:17.134Z,33.91
2018-07-31T08:18:44.866Z,34.24
2018-07-31T08:21:12.562Z,34.33
2018-07-31T08:23:40.226Z,33.56
2018-07-31T08:26:07.961Z,33.87
2018-07-31T08:28:35.650Z,34.19
2018-07-31T08:31:03.439Z,33.95
2018-07-31T08:33:31.192Z,34.19
2018-07-31T08:35:58.955Z,34.10
2018-07-31T08:38:26.722Z,34.31
2018-07-31T08:40:54.430Z,34.52
2018-07-31T08:43:22.167Z,34.84
2018-07-31T08:45:49.895Z,34.91
2018-07-31T08:48:17.767Z,35.01
2018-07-31T08:50:45.546Z,35.09
2018-07-31T08:53:13.298Z,35.24
2018-07-31T08:55:41.127Z,35.26
2018-07-31T08:58:08.804Z,35.19
2018-07-31T09:00:36.543Z,35.32
2018-07-31T09:03:04.366Z,35.45
2018-07-31T09:05:32.131Z,35.61
2018-07-31T09:07:59.879Z,35.60
2018-07-31T09:10:37.425Z,35.63
2018-07-31T09:13:05.230Z,35.59
2018-07-31T09:15:32.872Z,35.70
2018-07-31T09:18:00.620Z,35.86
2018-07-31T09:20:28.270Z,35.67
2018-07-31T09:22:55.940Z,35.74
2018-07-31T09:25:23.613Z,35.80
2018-07-31T09:27:51.336Z,35.80
2018-07-31T09:30:19.093Z,35.81
2018-07-31T09:33:18.122Z,35.95
2018-07-31T09:35:46.222Z,36.09
2018-07-31T09:38:14.549Z,36.24
2018-07-31T09:40:42.208Z,36.32
2018-07-31T09:43:09.911Z,36.35
2018-07-31T09:45:37.968Z,36.24
2018-07-31T09:48:05.697Z,36.35
2018-07-31T09:50:33.357Z,36.42
2018-07-31T09:53:01.095Z,36.07
2018-07-31T09:55:29.064Z,36.27
2018-07-31T09:57:56.748Z,36.40
2018-07-31T10:00:30.087Z,36.47
2018-07-31T10:02:57.746Z,36.58
2018-07-31T10:05:25.470Z,36.77
2018-07-31T10:07:53.150Z,36.94
2018-07-31T10:10:36.634Z,37.07
2018-07-31T10:13:04.314Z,36.98
2018-07-31T10:15:31.962Z,36.68
2018-07-31T10:17:59.722Z,36.59
2018-07-31T10:20:27.369Z,36.53
2018-07-31T10:22:55.122Z,36.70
2018-07-31T10:25:22.850Z,36.97
2018-07-31T10:27:50.529Z,37.10
2018-07-31T10:30:18.201Z,37.06
2018-07-31T10:32:45.882Z,36.76
2018-07-31T10:35:13.591Z,36.94
2018-07-31T10:37:41.318Z,37.12
2018-07-31T10:40:09.042Z,37.25
2018-07-31T10:42:36.762Z,37.14
2018-07-31T10:45:04.698Z,37.00
2018-07-31T10:47:34.074Z,37.01
2018-07-31T10:50:01.783Z,37.29
2018-07-31T10:52:29.448Z,37.16
2018-07-31T10:54:57.157Z,37.15
2018-07-31T10:57:24.798Z,37.35
2018-07-31T10:59:52.549Z,37.26
2018-07-31T11:02:20.275Z,37.00
2018-07-31T11:04:47.926Z,37.02
2018-07-31T11:07:15.668Z,37.24
2018-07-31T11:09:43.351Z,37.32
2018-07-31T11:12:11.130Z,37.32
2018-07-31T11:14:38.866Z,37.41
2018-07-31T11:17:06.589Z,36.98
2018-07-31T11:19:34.426Z,37.37
2018-07-31T11:22:02.338Z,37.58
2018-07-31T11:24:30.122Z,37.76
2018-07-31T11:26:57.830Z,37.90
2018-07-31T11:29:25.935Z,37.87
2018-07-31T11:31:53.650Z,37.71
2018-07-31T11:34:21.423Z,37.90
2018-07-31T11:36:49.132Z,38.06
2018-07-31T11:39:16.962Z,38.12
2018-07-31T11:41:44.666Z,38.49
2018-07-31T11:44:12.335Z,38.39
2018-07-31T11:46:40.050Z,38.57
2018-07-31T11:49:07.896Z,38.95
2018-07-31T11:51:35.970Z,39.08
2018-07-31T11:54:03.843Z,39.12
2018-07-31T11:56:31.762Z,39.12
2018-07-31T11:58:59.482Z,38.51
2018-07-31T12:01:27.204Z,38.54
2018-07-31T12:03:55.098Z,38.59
2018-07-31T12:06:23.278Z,39.25
2018-07-31T12:08:51.228Z,39.46
2018-07-31T12:11:18.930Z,39.83
2018-07-31T12:13:46.654Z,40.06
2018-07-31T12:16:14.426Z,40.37
2018-07-31T12:18:42.355Z,40.21
2018-07-31T12:21:10.085Z,40.61
2018-07-31T12:23:38.124Z,41.21
2018-07-31T12:26:06.095Z,40.49
2018-07-31T12:28:33.810Z,41.58
2018-07-31T12:31:01.552Z,41.38
2018-07-31T12:33:29.332Z,40.65
2018-07-31T12:35:57.462Z,40.49
2018-07-31T12:38:25.204Z,40.69
2018-07-31T12:40:53.126Z,41.15
2018-07-31T12:43:20.889Z,41.59
2018-07-31T12:45:48.588Z,41.75
2018-07-31T12:48:16.325Z,42.23
2018-07-31T12:50:44.011Z,41.66
2018-07-31T12:53:11.710Z,41.84
2018-07-31T12:55:39.412Z,42.02
2018-07-31T12:58:07.189Z,42.22
2018-07-31T13:00:34.898Z,42.37
2018-07-31T13:03:02.594Z,41.96
2018-07-31T13:05:30.319Z,41.74
2018-07-31T13:07:58.098Z,42.05
2018-07-31T13:10:36.942Z,41.94
2018-07-31T13:13:05.186Z,42.21
2018-07-31T13:15:33.058Z,42.58
2018-07-31T13:18:00.810Z,42.48
2018-07-31T13:20:28.746Z,41.87
2018-07-31T13:22:56.422Z,41.26
2018-07-31T13:25:24.090Z,41.36
2018-07-31T13:27:52.201Z,41.08
2018-07-31T13:30:19.867Z,41.57
2018-07-31T13:32:47.614Z,41.79
2018-07-31T13:35:15.405Z,41.12
2018-07-31T13:37:43.107Z,41.22
2018-07-31T13:40:10.777Z,41.19
2018-07-31T13:42:38.401Z,41.38
2018-07-31T13:45:06.105Z,41.33
2018-07-31T13:47:33.754Z,40.74
2018-07-31T13:50:01.405Z,40.54
2018-07-31T13:52:29.113Z,40.63
2018-07-31T13:54:56.760Z,40.68
2018-07-31T13:57:24.393Z,40.59
2018-07-31T13:59:52.073Z,40.41
2018-07-31T14:02:19.697Z,40.43
2018-07-31T14:04:47.364Z,40.58
2018-07-31T14:07:15.028Z,40.57
2018-07-31T14:09:42.693Z,40.23
2018-07-31T14:12:10.410Z,40.38
2018-07-31T14:14:38.095Z,40.79
2018-07-31T14:17:05.826Z,40.83
2018-07-31T14:19:33.564Z,40.89
2018-07-31T14:22:01.573Z,40.92
2018-07-31T14:24:29.550Z,40.90
2018-07-31T14:26:57.224Z,41.01
2018-07-31T14:29:24.954Z,41.01
2018-07-31T14:31:52.732Z,40.29
2018-07-31T14:34:20.387Z,40.02
2018-07-31T14:36:48.195Z,40.01
2018-07-31T14:39:15.849Z,39.96
2018-07-31T14:41:43.945Z,40.03
2018-07-31T14:44:11.661Z,40.05
2018-07-31T14:46:39.306Z,39.99
2018-07-31T14:49:06.993Z,39.68
2018-07-31T14:51:34.785Z,39.79
2018-07-31T14:54:02.513Z,39.86
2018-07-31T14:56:30.246Z,39.86
2018-07-31T14:58:57.906Z,39.62
2018-07-31T15:01:25.582Z,39.40
2018-07-31T15:03:53.417Z,39.27
2018-07-31T15:06:21.045Z,39.09
2018-07-31T15:08:48.741Z,38.89
2018-07-31T15:11:16.535Z,38.84
2018-07-31T15:13:44.214Z,38.63
2018-07-31T15:16:11.949Z,38.24
2018-07-31T15:18:39.565Z,38.04
2018-07-31T15:21:07.273Z,37.83
2018-07-31T15:23:34.941Z,37.79
2018-07-31T15:26:02.565Z,37.83
2018-07-31T15:28:30.304Z,37.78
2018-07-31T15:30:57.928Z,37.56
2018-07-31T15:33:25.593Z,37.40
2018-07-31T15:35:53.357Z,37.27
2018-07-31T15:38:20.968Z,37.17
2018-07-31T15:40:48.636Z,37.13
2018-07-31T15:43:16.215Z,36.98
2018-07-31T15:45:43.906Z,37.06
2018-07-31T15:48:11.541Z,37.27
2018-07-31T15:50:39.166Z,37.18
2018-07-31T15:53:06.921Z,37.22
2018-07-31T15:55:34.673Z,37.13
2018-07-31T15:58:02.458Z,36.99
2018-07-31T16:00:30.194Z,37.03
2018-07-31T16:02:57.927Z,37.04
2018-07-31T16:05:25.618Z,37.04
2018-07-31T16:07:53.396Z,37.02
2018-07-31T16:10:36.986Z,36.95
2018-07-31T16:13:04.846Z,36.85
2018-07-31T16:15:32.581Z,36.91
2018-07-31T16:18:00.347Z,36.82
2018-07-31T16:20:28.033Z,36.77
2018-07-31T16:22:55.702Z,36.78
2018-07-31T16:25:23.326Z,36.62
2018-07-31T16:27:50.980Z,36.45
2018-07-31T16:30:18.661Z,36.43
2018-07-31T16:32:46.313Z,36.27
2018-07-31T16:35:13.965Z,36.25
2018-07-31T16:37:41.614Z,36.21
2018-07-31T16:40:09.297Z,36.11
2018-07-31T16:42:36.898Z,36.10
2018-07-31T16:45:04.617Z,36.01
2018-07-31T16:47:32.250Z,35.99
2018-07-31T16:49:59.920Z,36.04
2018-07-31T16:52:27.705Z,36.04
2018-07-31T16:54:55.329Z,35.99
2018-07-31T16:57:23.218Z,35.95
2018-07-31T16:59:50.876Z,35.90
2018-07-31T17:02:18.515Z,35.81
2018-07-31T17:04:46.417Z,35.64
2018-07-31T17:07:14.033Z,35.52
2018-07-31T17:09:41.690Z,35.49
2018-07-31T17:12:10.041Z,35.41
2018-07-31T17:14:37.645Z,35.37
2018-07-31T17:17:05.340Z,35.37
2018-07-31T17:19:33.065Z,35.32
2018-07-31T17:22:00.718Z,35.25
2018-07-31T17:24:28.411Z,35.17
2018-07-31T17:26:56.197Z,34.99
2018-07-31T17:29:24.061Z,34.95
2018-07-31T17:31:51.719Z,34.91
2018-07-31T17:34:19.442Z,34.89
2018-07-31T17:36:47.090Z,34.89
2018-07-31T17:39:14.802Z,34.83
2018-07-31T17:41:42.463Z,34.82
2018-07-31T17:44:10.160Z,34.84
2018-07-31T17:46:37.798Z,34.83
2018-07-31T17:49:05.808Z,34.82
2018-07-31T17:51:33.449Z,34.81
2018-07-31T17:54:01.128Z,34.72
2018-07-31T17:56:28.878Z,34.70
2018-07-31T17:58:56.617Z,34.65
2018-07-31T18:01:24.678Z,34.62
2018-07-31T18:03:52.829Z,34.58
2018-07-31T18:06:20.457Z,34.47
2018-07-31T18:08:48.153Z,34.40
2018-07-31T18:11:16.096Z,34.34
2018-07-31T18:13:43.713Z,34.26
2018-07-31T18:16:11.345Z,34.23
2018-07-31T18:18:38.993Z,34.07
2018-07-31T18:21:06.770Z,34.03
2018-07-31T18:23:37.387Z,33.89
2018-07-31T18:26:05.044Z,33.87
2018-07-31T18:28:32.741Z,33.80
2018-07-31T18:31:00.489Z,33.70
2018-07-31T18:33:28.222Z,33.61
2018-07-31T18:35:56.147Z,33.54
2018-07-31T18:38:23.805Z,33.47
2018-07-31T18:40:51.557Z,33.39
2018-07-31T18:43:19.911Z,33.32
2018-07-31T18:45:47.721Z,33.20
2018-07-31T18:48:15.378Z,33.07
2018-07-31T18:50:43.051Z,32.99
2018-07-31T18:53:10.707Z,32.87
2018-07-31T18:55:38.374Z,32.74
2018-07-31T18:58:06.029Z,32.63
2018-07-31T19:00:33.735Z,32.50
2018-07-31T19:03:01.676Z,32.37
2018-07-31T19:05:29.481Z,32.25
2018-07-31T19:07:57.245Z,32.16
2018-07-31T19:10:24.888Z,32.05
2018-07-31T19:12:52.521Z,31.97
2018-07-31T19:15:20.274Z,31.89
2018-07-31T19:17:47.901Z,31.78
2018-07-31T19:20:15.627Z,31.70
2018-07-31T19:22:43.297Z,31.58
2018-07-31T19:25:11.049Z,31.50
2018-07-31T19:27:38.983Z,31.42
2018-07-31T19:30:06.778Z,31.35
2018-07-31T19:32:34.520Z,31.23
2018-07-31T19:35:02.252Z,31.14
2018-07-31T19:37:30.038Z,31.05
2018-07-31T19:39:57.730Z,30.92
2018-07-31T19:42:25.533Z,30.88
2018-07-31T19:44:53.264Z,30.83
2018-07-31T19:47:20.890Z,30.79
2018-07-31T19:49:48.577Z,30.73
2018-07-31T19:52:16.225Z,30.68
2018-07-31T19:54:43.997Z,30.52
2018-07-31T19:57:11.769Z,30.38
2018-07-31T19:59:39.399Z,30.18
2018-07-31T20:02:07.184Z,30.15
2018-07-31T20:04:35.036Z,30.10
2018-07-31T20:07:02.680Z,30.04
2018-07-31T20:09:30.356Z,30.05
2018-07-31T20:11:59.584Z,30.02
2018-07-31T20:14:27.204Z,29.93
2018-07-31T20:16:54.907Z,29.88
2018-07-31T20:19:22.812Z,29.84
2018-07-31T20:21:50.618Z,29.84
2018-07-31T20:24:18.326Z,29.75
2018-07-31T20:26:46.070Z,29.66
2018-07-31T20:29:13.769Z,29.63
2018-07-31T20:31:41.542Z,29.59
2018-07-31T20:34:09.705Z,29.51
2018-07-31T20:36:37.493Z,29.34
2018-07-31T20:39:08.109Z,29.31
2018-07-31T20:41:35.992Z,29.24
2018-07-31T20:44:03.836Z,29.19
2018-07-31T20:46:31.462Z,29.17
2018-07-31T20:48:59.180Z,29.14
2018-07-31T20:51:26.877Z,29.10
2018-07-31T20:53:54.569Z,29.06
2018-07-31T20:56:22.229Z,29.04
2018-07-31T20:58:50.209Z,29.02
2018-07-31T21:01:17.814Z,28.99
2018-07-31T21:03:45.564Z,28.93
2018-07-31T21:06:13.185Z,28.91
2018-07-31T21:08:40.853Z,28.89
2018-07-31T21:11:08.485Z,28.87
2018-07-31T21:13:36.241Z,28.77
2018-07-31T21:16:04.190Z,28.66
2018-07-31T21:18:32.188Z,28.62
2018-07-31T21:20:59.888Z,28.59
2018-07-31T21:23:27.518Z,28.62
2018-07-31T21:25:55.193Z,28.57
2018-07-31T21:28:23.667Z,28.54
2018-07-31T21:30:51.270Z,28.51
2018-07-31T21:33:19.022Z,28.45
2018-07-31T21:35:46.713Z,28.47
2018-07-31T21:38:14.349Z,28.47
2018-07-31T21:40:42.206Z,28.39
2018-07-31T21:43:09.844Z,28.28
2018-07-31T21:45:37.599Z,28.26
2018-07-31T21:48:05.292Z,28.16
2018-07-31T21:50:32.905Z,28.17
2018-07-31T21:53:00.553Z,28.11
2018-07-31T21:55:28.273Z,28.04
2018-07-31T21:57:56.153Z,28.02
2018-07-31T22:00:23.837Z,27.98
2018-07-31T22:02:51.499Z,27.87
2018-07-31T22:05:19.416Z,27.85
2018-07-31T22:07:47.087Z,27.73
2018-07-31T22:10:36.577Z,27.73
2018-07-31T22:13:04.210Z,27.71
2018-07-31T22:15:32.916Z,27.68
2018-07-31T22:18:00.571Z,27.62
2018-07-31T22:20:28.246Z,27.56
2018-07-31T22:22:55.925Z,27.47
2018-07-31T22:25:23.630Z,27.43
2018-07-31T22:27:51.362Z,27.36
2018-07-31T22:30:19.264Z,27.32
2018-07-31T22:32:46.956Z,27.24
2018-07-31T22:35:14.579Z,27.16
2018-07-31T22:37:42.303Z,27.11
2018-07-31T22:40:10.609Z,27.03
2018-07-31T22:42:38.778Z,27.01
2018-07-31T22:45:06.382Z,26.80
2018-07-31T22:47:34.086Z,26.90
2018-07-31T22:50:01.867Z,26.88
2018-07-31T22:52:29.592Z,26.88
2018-07-31T22:54:57.234Z,26.85
2018-07-31T22:57:24.999Z,26.81
2018-07-31T22:59:52.739Z,26.77
2018-07-31T23:02:20.549Z,26.75
2018-07-31T23:04:48.222Z,26.71
2018-07-31T23:07:15.919Z,26.67
2018-07-31T23:09:48.250Z,26.55
2018-07-31T23:12:15.946Z,26.47
2018-07-31T23:14:43.580Z,26.33
2018-07-31T23:17:11.281Z,26.35
2018-07-31T23:19:39.926Z,26.31
2018-07-31T23:22:07.705Z,26.32
2018-07-31T23:24:35.350Z,26.19
2018-07-31T23:27:02.988Z,26.16
2018-07-31T23:29:30.713Z,26.16
2018-07-31T23:31:58.415Z,26.08
2018-07-31T23:34:26.798Z,26.08
2018-07-31T23:36:54.434Z,26.07
2018-07-31T23:39:22.318Z,26.06
2018-07-31T23:41:49.965Z,26.06
2018-07-31T23:44:18.693Z,26.02
2018-07-31T23:46:46.401Z,26.01
2018-07-31T23:49:14.144Z,25.98
2018-07-31T23:51:41.765Z,25.93
2018-07-31T23:54:09.808Z,25.91
2018-07-31T23:56:37.786Z,25.85
2018-07-31T23:59:05.465Z,25.89
